sensor_id;sensor_type;location;lat;lon;timestamp;P1;durP1;ratioP1;P2;durP2;ratioP2
10246;SDS011;5168;47.854;7.944;2023-02-28T00:00:16;5.10;;;4.10;;
10246;SDS011;5168;47.854;7.944;2023-02-28T00:02:43;6.57;;;4.20;;
10246;SDS011;5168;47.854;7.944;2023-02-28T00:05:11;5.10;;;4.37;;
10246;SDS011;5168;47.854;7.944;2023-02-28T00:07:38;5.43;;;4.47;;
10246;SDS011;5168;47.854;7.944;2023-02-28T00:10:05;5.10;;;4.60;;
10246;SDS011;5168;47.854;7.944;2023-02-28T00:12:32;4.50;;;4.10;;
10246;SDS011;5168;47.854;7.944;2023-02-28T00:14:59;4.87;;;4.37;;
10246;SDS011;5168;47.854;7.944;2023-02-28T00:17:25;5.90;;;4.83;;
10246;SDS011;5168;47.854;7.944;2023-02-28T00:19:51;5.10;;;4.20;;
10246;SDS011;5168;47.854;7.944;2023-02-28T00:22:18;4.77;;;4.37;;
10246;SDS011;5168;47.854;7.944;2023-02-28T00:24:45;4.70;;;4.30;;
10246;SDS011;5168;47.854;7.944;2023-02-28T00:27:12;5.33;;;4.80;;
10246;SDS011;5168;47.854;7.944;2023-02-28T00:29:37;4.97;;;4.47;;
10246;SDS011;5168;47.854;7.944;2023-02-28T00:32:04;4.70;;;4.30;;
10246;SDS011;5168;47.854;7.944;2023-02-28T00:34:30;5.23;;;4.10;;
10246;SDS011;5168;47.854;7.944;2023-02-28T00:37:06;5.80;;;4.33;;
10246;SDS011;5168;47.854;7.944;2023-02-28T00:39:39;5.00;;;4.60;;
10246;SDS011;5168;47.854;7.944;2023-02-28T00:42:05;5.30;;;4.60;;
10246;SDS011;5168;47.854;7.944;2023-02-28T00:44:32;4.80;;;4.30;;
10246;SDS011;5168;47.854;7.944;2023-02-28T00:46:58;5.07;;;4.20;;
10246;SDS011;5168;47.854;7.944;2023-02-28T00:49:24;6.97;;;4.73;;
10246;SDS011;5168;47.854;7.944;2023-02-28T00:51:51;4.67;;;3.97;;
10246;SDS011;5168;47.854;7.944;2023-02-28T00:54:17;5.30;;;4.67;;
10246;SDS011;5168;47.854;7.944;2023-02-28T00:56:43;4.73;;;4.23;;
10246;SDS011;5168;47.854;7.944;2023-02-28T00:59:08;5.93;;;5.20;;
10246;SDS011;5168;47.854;7.944;2023-02-28T01:01:34;5.63;;;5.00;;
10246;SDS011;5168;47.854;7.944;2023-02-28T01:04:00;5.13;;;4.63;;
10246;SDS011;5168;47.854;7.944;2023-02-28T01:06:25;4.87;;;4.43;;
10246;SDS011;5168;47.854;7.944;2023-02-28T01:08:51;5.20;;;4.70;;
10246;SDS011;5168;47.854;7.944;2023-02-28T01:11:17;5.93;;;5.00;;
10246;SDS011;5168;47.854;7.944;2023-02-28T01:13:43;5.63;;;5.07;;
10246;SDS011;5168;47.854;7.944;2023-02-28T01:16:10;5.17;;;4.60;;
10246;SDS011;5168;47.854;7.944;2023-02-28T01:18:37;5.00;;;4.50;;
10246;SDS011;5168;47.854;7.944;2023-02-28T01:21:04;5.30;;;4.53;;
10246;SDS011;5168;47.854;7.944;2023-02-28T01:23:34;7.43;;;5.23;;
10246;SDS011;5168;47.854;7.944;2023-02-28T01:26:10;6.00;;;4.90;;
10246;SDS011;5168;47.854;7.944;2023-02-28T01:28:40;5.10;;;4.60;;
10246;SDS011;5168;47.854;7.944;2023-02-28T01:31:07;5.20;;;4.70;;
10246;SDS011;5168;47.854;7.944;2023-02-28T01:33:33;5.03;;;4.53;;
10246;SDS011;5168;47.854;7.944;2023-02-28T01:36:00;5.30;;;4.47;;
10246;SDS011;5168;47.854;7.944;2023-02-28T01:38:26;5.43;;;4.93;;
10246;SDS011;5168;47.854;7.944;2023-02-28T01:40:53;5.23;;;4.73;;
10246;SDS011;5168;47.854;7.944;2023-02-28T01:43:29;6.70;;;4.70;;
10246;SDS011;5168;47.854;7.944;2023-02-28T01:45:57;4.93;;;4.53;;
10246;SDS011;5168;47.854;7.944;2023-02-28T01:48:27;6.50;;;4.60;;
10246;SDS011;5168;47.854;7.944;2023-02-28T01:51:02;5.17;;;4.70;;
10246;SDS011;5168;47.854;7.944;2023-02-28T01:53:32;5.70;;;5.10;;
10246;SDS011;5168;47.854;7.944;2023-02-28T01:56:09;5.30;;;4.80;;
10246;SDS011;5168;47.854;7.944;2023-02-28T01:58:37;5.43;;;4.93;;
10246;SDS011;5168;47.854;7.944;2023-02-28T02:01:03;5.37;;;4.80;;
10246;SDS011;5168;47.854;7.944;2023-02-28T02:03:29;4.93;;;4.53;;
10246;SDS011;5168;47.854;7.944;2023-02-28T02:05:56;5.20;;;4.70;;
10246;SDS011;5168;47.854;7.944;2023-02-28T02:08:25;5.17;;;4.67;;
10246;SDS011;5168;47.854;7.944;2023-02-28T02:11:00;4.60;;;4.17;;
10246;SDS011;5168;47.854;7.944;2023-02-28T02:15:56;5.20;;;4.33;;
10246;SDS011;5168;47.854;7.944;2023-02-28T02:31:59;4.53;;;4.10;;
10246;SDS011;5168;47.854;7.944;2023-02-28T02:40:23;4.53;;;4.13;;
10246;SDS011;5168;47.854;7.944;2023-02-28T02:42:56;5.57;;;3.90;;
10246;SDS011;5168;47.854;7.944;2023-02-28T02:45:34;5.10;;;4.07;;
10246;SDS011;5168;47.854;7.944;2023-02-28T02:48:37;4.53;;;4.13;;
10246;SDS011;5168;47.854;7.944;2023-02-28T02:51:07;4.30;;;3.90;;
10246;SDS011;5168;47.854;7.944;2023-02-28T02:53:41;4.20;;;3.80;;
10246;SDS011;5168;47.854;7.944;2023-02-28T02:56:14;4.20;;;3.90;;
10246;SDS011;5168;47.854;7.944;2023-02-28T02:58:42;3.90;;;3.60;;
10246;SDS011;5168;47.854;7.944;2023-02-28T03:01:13;4.20;;;3.73;;
10246;SDS011;5168;47.854;7.944;2023-02-28T03:03:52;3.87;;;3.57;;
10246;SDS011;5168;47.854;7.944;2023-02-28T03:06:23;4.50;;;3.77;;
10246;SDS011;5168;47.854;7.944;2023-02-28T03:08:48;3.90;;;3.60;;
10246;SDS011;5168;47.854;7.944;2023-02-28T03:11:14;4.20;;;3.80;;
10246;SDS011;5168;47.854;7.944;2023-02-28T03:27:09;4.23;;;3.83;;
10246;SDS011;5168;47.854;7.944;2023-02-28T03:29:43;3.77;;;3.47;;
10246;SDS011;5168;47.854;7.944;2023-02-28T03:32:14;3.97;;;3.63;;
10246;SDS011;5168;47.854;7.944;2023-02-28T03:38:17;4.40;;;4.00;;
10246;SDS011;5168;47.854;7.944;2023-02-28T03:40:49;3.90;;;3.60;;
10246;SDS011;5168;47.854;7.944;2023-02-28T03:43:22;4.30;;;3.90;;
10246;SDS011;5168;47.854;7.944;2023-02-28T03:45:52;4.40;;;3.93;;
10246;SDS011;5168;47.854;7.944;2023-02-28T03:48:22;4.30;;;3.90;;
10246;SDS011;5168;47.854;7.944;2023-02-28T03:50:54;3.40;;;3.20;;
10246;SDS011;5168;47.854;7.944;2023-02-28T03:53:32;3.83;;;3.43;;
10246;SDS011;5168;47.854;7.944;2023-02-28T03:56:11;3.30;;;3.10;;
10246;SDS011;5168;47.854;7.944;2023-02-28T03:58:41;3.80;;;3.40;;
10246;SDS011;5168;47.854;7.944;2023-02-28T04:01:44;4.13;;;3.73;;
10246;SDS011;5168;47.854;7.944;2023-02-28T04:04:12;3.73;;;3.27;;
10246;SDS011;5168;47.854;7.944;2023-02-28T04:06:38;4.40;;;4.00;;
10246;SDS011;5168;47.854;7.944;2023-02-28T04:09:05;4.20;;;3.80;;
10246;SDS011;5168;47.854;7.944;2023-02-28T04:11:33;4.17;;;3.83;;
10246;SDS011;5168;47.854;7.944;2023-02-28T04:14:04;4.20;;;3.70;;
10246;SDS011;5168;47.854;7.944;2023-02-28T04:16:31;3.97;;;3.67;;
10246;SDS011;5168;47.854;7.944;2023-02-28T04:18:57;4.20;;;3.80;;
10246;SDS011;5168;47.854;7.944;2023-02-28T04:21:44;4.37;;;3.93;;
10246;SDS011;5168;47.854;7.944;2023-02-28T04:24:17;4.50;;;4.10;;
10246;SDS011;5168;47.854;7.944;2023-02-28T04:26:45;5.00;;;4.27;;
10246;SDS011;5168;47.854;7.944;2023-02-28T04:29:13;4.13;;;3.80;;
10246;SDS011;5168;47.854;7.944;2023-02-28T04:31:43;4.70;;;4.30;;
10246;SDS011;5168;47.854;7.944;2023-02-28T04:34:10;4.60;;;4.20;;
10246;SDS011;5168;47.854;7.944;2023-02-28T04:36:35;5.43;;;4.13;;
10246;SDS011;5168;47.854;7.944;2023-02-28T04:39:01;4.53;;;4.00;;
10246;SDS011;5168;47.854;7.944;2023-02-28T04:41:27;4.43;;;4.03;;
10246;SDS011;5168;47.854;7.944;2023-02-28T04:43:53;3.80;;;3.50;;
10246;SDS011;5168;47.854;7.944;2023-02-28T04:46:20;4.70;;;4.30;;
10246;SDS011;5168;47.854;7.944;2023-02-28T04:48:46;4.13;;;3.83;;
10246;SDS011;5168;47.854;7.944;2023-02-28T04:51:13;4.87;;;4.23;;
10246;SDS011;5168;47.854;7.944;2023-02-28T04:53:40;4.33;;;3.93;;
10246;SDS011;5168;47.854;7.944;2023-02-28T04:56:07;4.30;;;3.90;;
10246;SDS011;5168;47.854;7.944;2023-02-28T04:58:36;4.17;;;3.87;;
10246;SDS011;5168;47.854;7.944;2023-02-28T05:01:03;4.60;;;4.20;;
10246;SDS011;5168;47.854;7.944;2023-02-28T05:03:30;3.90;;;3.60;;
10246;SDS011;5168;47.854;7.944;2023-02-28T05:05:56;4.10;;;3.70;;
10246;SDS011;5168;47.854;7.944;2023-02-28T05:08:21;4.43;;;4.03;;
10246;SDS011;5168;47.854;7.944;2023-02-28T05:10:47;4.23;;;3.83;;
10246;SDS011;5168;47.854;7.944;2023-02-28T05:13:12;4.80;;;4.00;;
10246;SDS011;5168;47.854;7.944;2023-02-28T05:15:38;4.07;;;3.70;;
10246;SDS011;5168;47.854;7.944;2023-02-28T05:18:04;4.73;;;4.23;;
10246;SDS011;5168;47.854;7.944;2023-02-28T05:20:29;4.30;;;3.90;;
10246;SDS011;5168;47.854;7.944;2023-02-28T05:22:56;4.10;;;3.70;;
10246;SDS011;5168;47.854;7.944;2023-02-28T05:25:23;3.93;;;3.63;;
10246;SDS011;5168;47.854;7.944;2023-02-28T05:27:49;4.43;;;4.03;;
10246;SDS011;5168;47.854;7.944;2023-02-28T05:30:15;4.40;;;4.00;;
10246;SDS011;5168;47.854;7.944;2023-02-28T05:32:41;4.47;;;4.07;;
10246;SDS011;5168;47.854;7.944;2023-02-28T05:35:10;4.43;;;4.03;;
10246;SDS011;5168;47.854;7.944;2023-02-28T05:37:36;4.30;;;4.00;;
10246;SDS011;5168;47.854;7.944;2023-02-28T05:40:03;4.60;;;4.20;;
10246;SDS011;5168;47.854;7.944;2023-02-28T05:42:35;4.30;;;4.00;;
10246;SDS011;5168;47.854;7.944;2023-02-28T05:45:00;3.97;;;3.57;;
10246;SDS011;5168;47.854;7.944;2023-02-28T05:47:26;4.17;;;3.77;;
10246;SDS011;5168;47.854;7.944;2023-02-28T05:49:52;4.70;;;4.30;;
10246;SDS011;5168;47.854;7.944;2023-02-28T05:52:18;4.07;;;3.73;;
10246;SDS011;5168;47.854;7.944;2023-02-28T05:54:43;3.80;;;3.50;;
10246;SDS011;5168;47.854;7.944;2023-02-28T05:57:10;4.50;;;4.10;;
10246;SDS011;5168;47.854;7.944;2023-02-28T05:59:36;4.20;;;3.80;;
10246;SDS011;5168;47.854;7.944;2023-02-28T06:02:04;4.17;;;3.80;;
10246;SDS011;5168;47.854;7.944;2023-02-28T06:04:31;4.57;;;4.17;;
10246;SDS011;5168;47.854;7.944;2023-02-28T06:06:57;4.60;;;4.20;;
10246;SDS011;5168;47.854;7.944;2023-02-28T06:09:22;4.60;;;4.10;;
10246;SDS011;5168;47.854;7.944;2023-02-28T06:11:48;4.77;;;4.30;;
10246;SDS011;5168;47.854;7.944;2023-02-28T06:14:15;4.00;;;3.70;;
10246;SDS011;5168;47.854;7.944;2023-02-28T06:16:42;4.67;;;4.27;;
10246;SDS011;5168;47.854;7.944;2023-02-28T06:19:08;4.80;;;4.20;;
10246;SDS011;5168;47.854;7.944;2023-02-28T06:21:34;4.80;;;4.10;;
10246;SDS011;5168;47.854;7.944;2023-02-28T06:24:01;5.67;;;3.77;;
10246;SDS011;5168;47.854;7.944;2023-02-28T06:26:27;4.50;;;4.10;;
10246;SDS011;5168;47.854;7.944;2023-02-28T06:28:53;4.73;;;4.30;;
10246;SDS011;5168;47.854;7.944;2023-02-28T06:31:19;5.50;;;4.43;;
10246;SDS011;5168;47.854;7.944;2023-02-28T06:33:45;5.50;;;4.80;;
10246;SDS011;5168;47.854;7.944;2023-02-28T06:36:12;5.20;;;4.53;;
10246;SDS011;5168;47.854;7.944;2023-02-28T06:38:39;6.07;;;5.47;;
10246;SDS011;5168;47.854;7.944;2023-02-28T06:41:06;5.20;;;4.70;;
10246;SDS011;5168;47.854;7.944;2023-02-28T06:43:33;5.97;;;4.77;;
10246;SDS011;5168;47.854;7.944;2023-02-28T06:46:05;6.37;;;5.03;;
10246;SDS011;5168;47.854;7.944;2023-02-28T06:48:32;5.20;;;4.70;;
10246;SDS011;5168;47.854;7.944;2023-02-28T06:51:05;6.27;;;4.67;;
10246;SDS011;5168;47.854;7.944;2023-02-28T06:53:42;5.40;;;4.90;;
10246;SDS011;5168;47.854;7.944;2023-02-28T06:56:09;5.83;;;4.90;;
10246;SDS011;5168;47.854;7.944;2023-02-28T06:58:37;5.30;;;4.80;;
10246;SDS011;5168;47.854;7.944;2023-02-28T07:01:04;5.60;;;4.60;;
10246;SDS011;5168;47.854;7.944;2023-02-28T07:03:30;5.17;;;4.40;;
10246;SDS011;5168;47.854;7.944;2023-02-28T07:05:56;5.07;;;4.57;;
10246;SDS011;5168;47.854;7.944;2023-02-28T07:08:22;5.73;;;5.03;;
10246;SDS011;5168;47.854;7.944;2023-02-28T07:10:55;7.00;;;5.13;;
10246;SDS011;5168;47.854;7.944;2023-02-28T07:13:21;5.93;;;5.33;;
10246;SDS011;5168;47.854;7.944;2023-02-28T07:15:58;7.43;;;5.60;;
10246;SDS011;5168;47.854;7.944;2023-02-28T07:18:25;6.87;;;5.73;;
10246;SDS011;5168;47.854;7.944;2023-02-28T07:20:51;7.10;;;5.53;;
10246;SDS011;5168;47.854;7.944;2023-02-28T07:23:16;7.93;;;5.73;;
10246;SDS011;5168;47.854;7.944;2023-02-28T07:25:42;7.30;;;5.93;;
10246;SDS011;5168;47.854;7.944;2023-02-28T07:28:08;6.70;;;5.83;;
10246;SDS011;5168;47.854;7.944;2023-02-28T07:30:34;6.23;;;5.33;;
10246;SDS011;5168;47.854;7.944;2023-02-28T07:33:00;7.37;;;5.90;;
10246;SDS011;5168;47.854;7.944;2023-02-28T07:35:25;6.53;;;5.90;;
10246;SDS011;5168;47.854;7.944;2023-02-28T07:37:51;7.33;;;5.93;;
10246;SDS011;5168;47.854;7.944;2023-02-28T07:40:17;7.23;;;5.77;;
10246;SDS011;5168;47.854;7.944;2023-02-28T07:42:42;6.80;;;6.10;;
10246;SDS011;5168;47.854;7.944;2023-02-28T07:45:08;8.20;;;6.20;;
10246;SDS011;5168;47.854;7.944;2023-02-28T07:47:36;7.33;;;5.83;;
10246;SDS011;5168;47.854;7.944;2023-02-28T07:50:03;7.20;;;6.07;;
10246;SDS011;5168;47.854;7.944;2023-02-28T07:52:30;8.30;;;6.37;;
10246;SDS011;5168;47.854;7.944;2023-02-28T07:54:57;6.73;;;5.83;;
10246;SDS011;5168;47.854;7.944;2023-02-28T07:57:22;8.13;;;6.10;;
10246;SDS011;5168;47.854;7.944;2023-02-28T07:59:48;7.43;;;6.13;;
10246;SDS011;5168;47.854;7.944;2023-02-28T08:02:15;8.43;;;6.37;;
10246;SDS011;5168;47.854;7.944;2023-02-28T08:04:42;8.87;;;6.80;;
10246;SDS011;5168;47.854;7.944;2023-02-28T08:07:08;9.03;;;7.17;;
10246;SDS011;5168;47.854;7.944;2023-02-28T08:09:38;5.90;;;5.30;;
10246;SDS011;5168;47.854;7.944;2023-02-28T08:12:04;8.10;;;5.93;;
10246;SDS011;5168;47.854;7.944;2023-02-28T08:14:30;8.00;;;6.00;;
10246;SDS011;5168;47.854;7.944;2023-02-28T08:16:56;7.03;;;5.83;;
10246;SDS011;5168;47.854;7.944;2023-02-28T08:19:21;6.70;;;6.00;;
10246;SDS011;5168;47.854;7.944;2023-02-28T08:21:47;7.67;;;6.47;;
10246;SDS011;5168;47.854;7.944;2023-02-28T08:24:13;7.27;;;5.90;;
10246;SDS011;5168;47.854;7.944;2023-02-28T08:26:39;6.20;;;5.60;;
10246;SDS011;5168;47.854;7.944;2023-02-28T08:29:04;7.00;;;5.90;;
10246;SDS011;5168;47.854;7.944;2023-02-28T08:31:30;6.37;;;5.20;;
10246;SDS011;5168;47.854;7.944;2023-02-28T08:33:56;7.43;;;6.17;;
10246;SDS011;5168;47.854;7.944;2023-02-28T08:36:24;6.10;;;5.43;;
10246;SDS011;5168;47.854;7.944;2023-02-28T08:38:50;7.17;;;6.07;;
10246;SDS011;5168;47.854;7.944;2023-02-28T08:41:16;6.17;;;5.57;;
10246;SDS011;5168;47.854;7.944;2023-02-28T08:43:42;6.40;;;5.60;;
10246;SDS011;5168;47.854;7.944;2023-02-28T08:46:08;8.90;;;6.17;;
10246;SDS011;5168;47.854;7.944;2023-02-28T08:48:36;6.97;;;5.93;;
10246;SDS011;5168;47.854;7.944;2023-02-28T08:51:09;7.00;;;5.90;;
10246;SDS011;5168;47.854;7.944;2023-02-28T08:53:38;7.10;;;6.10;;
10246;SDS011;5168;47.854;7.944;2023-02-28T08:56:05;11.00;;;6.70;;
10246;SDS011;5168;47.854;7.944;2023-02-28T08:58:33;7.30;;;6.00;;
10246;SDS011;5168;47.854;7.944;2023-02-28T09:00:59;6.57;;;5.53;;
10246;SDS011;5168;47.854;7.944;2023-02-28T09:03:26;6.30;;;5.70;;
10246;SDS011;5168;47.854;7.944;2023-02-28T09:05:53;8.07;;;5.60;;
10246;SDS011;5168;47.854;7.944;2023-02-28T09:08:24;6.07;;;5.47;;
10246;SDS011;5168;47.854;7.944;2023-02-28T09:10:50;7.70;;;6.13;;
10246;SDS011;5168;47.854;7.944;2023-02-28T09:13:17;8.73;;;6.03;;
10246;SDS011;5168;47.854;7.944;2023-02-28T09:15:43;8.40;;;6.10;;
10246;SDS011;5168;47.854;7.944;2023-02-28T09:18:08;8.50;;;5.90;;
10246;SDS011;5168;47.854;7.944;2023-02-28T09:20:36;7.20;;;5.57;;
10246;SDS011;5168;47.854;7.944;2023-02-28T09:23:03;6.80;;;6.10;;
10246;SDS011;5168;47.854;7.944;2023-02-28T09:25:29;7.37;;;5.83;;
10246;SDS011;5168;47.854;7.944;2023-02-28T09:27:55;6.87;;;5.83;;
10246;SDS011;5168;47.854;7.944;2023-02-28T09:30:20;6.20;;;5.60;;
10246;SDS011;5168;47.854;7.944;2023-02-28T09:32:46;7.03;;;6.17;;
10246;SDS011;5168;47.854;7.944;2023-02-28T09:35:16;6.43;;;5.67;;
10246;SDS011;5168;47.854;7.944;2023-02-28T09:37:43;8.77;;;6.07;;
10246;SDS011;5168;47.854;7.944;2023-02-28T09:40:09;7.70;;;5.63;;
10246;SDS011;5168;47.854;7.944;2023-02-28T09:42:35;5.53;;;5.00;;
10246;SDS011;5168;47.854;7.944;2023-02-28T09:45:02;6.27;;;5.40;;
10246;SDS011;5168;47.854;7.944;2023-02-28T09:47:39;7.23;;;5.37;;
10246;SDS011;5168;47.854;7.944;2023-02-28T09:52:54;7.07;;;5.93;;
10246;SDS011;5168;47.854;7.944;2023-02-28T09:58:14;6.07;;;5.43;;
10246;SDS011;5168;47.854;7.944;2023-02-28T10:00:45;6.40;;;5.30;;
10246;SDS011;5168;47.854;7.944;2023-02-28T10:03:24;7.50;;;5.60;;
10246;SDS011;5168;47.854;7.944;2023-02-28T10:08:34;6.27;;;5.53;;
10246;SDS011;5168;47.854;7.944;2023-02-28T10:11:06;7.47;;;5.60;;
10246;SDS011;5168;47.854;7.944;2023-02-28T10:22:03;5.80;;;5.20;;
10246;SDS011;5168;47.854;7.944;2023-02-28T10:24:40;8.20;;;5.80;;
10246;SDS011;5168;47.854;7.944;2023-02-28T10:29:49;6.97;;;5.73;;
10246;SDS011;5168;47.854;7.944;2023-02-28T10:32:18;7.20;;;5.73;;
10246;SDS011;5168;47.854;7.944;2023-02-28T10:37:47;5.23;;;4.73;;
10246;SDS011;5168;47.854;7.944;2023-02-28T10:42:42;5.67;;;4.97;;
10246;SDS011;5168;47.854;7.944;2023-02-28T10:45:30;6.33;;;5.20;;
10246;SDS011;5168;47.854;7.944;2023-02-28T10:48:33;6.33;;;4.73;;
10246;SDS011;5168;47.854;7.944;2023-02-28T10:51:02;7.13;;;5.53;;
10246;SDS011;5168;47.854;7.944;2023-02-28T10:53:33;5.67;;;5.10;;
10246;SDS011;5168;47.854;7.944;2023-02-28T11:01:12;6.13;;;5.53;;
10246;SDS011;5168;47.854;7.944;2023-02-28T11:03:43;5.87;;;5.27;;
10246;SDS011;5168;47.854;7.944;2023-02-28T11:06:17;5.53;;;4.97;;
10246;SDS011;5168;47.854;7.944;2023-02-28T11:08:52;5.87;;;5.27;;
10246;SDS011;5168;47.854;7.944;2023-02-28T11:11:24;7.77;;;5.97;;
10246;SDS011;5168;47.854;7.944;2023-02-28T11:13:52;6.17;;;5.30;;
10246;SDS011;5168;47.854;7.944;2023-02-28T11:16:20;7.60;;;6.07;;
10246;SDS011;5168;47.854;7.944;2023-02-28T11:21:21;6.73;;;5.87;;
10246;SDS011;5168;47.854;7.944;2023-02-28T11:23:48;7.87;;;5.93;;
10246;SDS011;5168;47.854;7.944;2023-02-28T11:26:15;6.27;;;5.43;;
10246;SDS011;5168;47.854;7.944;2023-02-28T11:29:08;8.73;;;6.03;;
10246;SDS011;5168;47.854;7.944;2023-02-28T11:31:37;6.20;;;5.60;;
10246;SDS011;5168;47.854;7.944;2023-02-28T11:34:07;7.00;;;6.27;;
10246;SDS011;5168;47.854;7.944;2023-02-28T11:36:51;6.53;;;5.70;;
10246;SDS011;5168;47.854;7.944;2023-02-28T11:39:17;6.53;;;5.43;;
10246;SDS011;5168;47.854;7.944;2023-02-28T11:44:34;6.67;;;5.90;;
10246;SDS011;5168;47.854;7.944;2023-02-28T11:47:34;6.40;;;5.80;;
10246;SDS011;5168;47.854;7.944;2023-02-28T11:50:12;6.50;;;5.80;;
10246;SDS011;5168;47.854;7.944;2023-02-28T11:53:14;8.40;;;5.40;;
10246;SDS011;5168;47.854;7.944;2023-02-28T11:55:46;6.43;;;5.63;;
10246;SDS011;5168;47.854;7.944;2023-02-28T12:04:11;6.03;;;5.50;;
10246;SDS011;5168;47.854;7.944;2023-02-28T12:12:10;6.00;;;5.37;;
10246;SDS011;5168;47.854;7.944;2023-02-28T12:15:04;5.80;;;5.13;;
10246;SDS011;5168;47.854;7.944;2023-02-28T12:20:34;5.40;;;4.90;;
10246;SDS011;5168;47.854;7.944;2023-02-28T12:28:35;5.63;;;4.97;;
10246;SDS011;5168;47.854;7.944;2023-02-28T12:31:09;6.80;;;6.10;;
10246;SDS011;5168;47.854;7.944;2023-02-28T12:33:43;6.97;;;5.60;;
10246;SDS011;5168;47.854;7.944;2023-02-28T12:36:15;6.57;;;5.33;;
10246;SDS011;5168;47.854;7.944;2023-02-28T12:39:06;5.50;;;5.00;;
10246;SDS011;5168;47.854;7.944;2023-02-28T12:41:45;6.50;;;5.80;;
10246;SDS011;5168;47.854;7.944;2023-02-28T12:44:17;7.23;;;5.90;;
10246;SDS011;5168;47.854;7.944;2023-02-28T12:46:51;6.83;;;5.47;;
10246;SDS011;5168;47.854;7.944;2023-02-28T12:49:23;6.37;;;5.37;;
10246;SDS011;5168;47.854;7.944;2023-02-28T12:51:59;6.40;;;5.70;;
10246;SDS011;5168;47.854;7.944;2023-02-28T12:57:32;6.50;;;5.97;;
10246;SDS011;5168;47.854;7.944;2023-02-28T13:00:10;6.27;;;5.67;;
10246;SDS011;5168;47.854;7.944;2023-02-28T13:02:46;6.07;;;5.57;;
10246;SDS011;5168;47.854;7.944;2023-02-28T13:05:46;5.87;;;5.37;;
10246;SDS011;5168;47.854;7.944;2023-02-28T13:11:05;6.63;;;6.03;;
10246;SDS011;5168;47.854;7.944;2023-02-28T13:13:31;6.07;;;5.40;;
10246;SDS011;5168;47.854;7.944;2023-02-28T13:18:31;5.50;;;5.00;;
10246;SDS011;5168;47.854;7.944;2023-02-28T13:21:01;7.83;;;6.20;;
10246;SDS011;5168;47.854;7.944;2023-02-28T13:23:40;5.60;;;5.10;;
10246;SDS011;5168;47.854;7.944;2023-02-28T13:29:34;6.83;;;5.87;;
10246;SDS011;5168;47.854;7.944;2023-02-28T13:34:30;7.03;;;6.33;;
10246;SDS011;5168;47.854;7.944;2023-02-28T13:39:47;5.97;;;5.37;;
10246;SDS011;5168;47.854;7.944;2023-02-28T13:50:14;6.07;;;5.47;;
10246;SDS011;5168;47.854;7.944;2023-02-28T13:52:53;6.30;;;5.70;;
10246;SDS011;5168;47.854;7.944;2023-02-28T13:55:29;6.70;;;6.10;;
10246;SDS011;5168;47.854;7.944;2023-02-28T13:58:09;7.70;;;6.90;;
10246;SDS011;5168;47.854;7.944;2023-02-28T14:00:59;6.67;;;5.87;;
10246;SDS011;5168;47.854;7.944;2023-02-28T14:04:21;5.90;;;5.27;;
10246;SDS011;5168;47.854;7.944;2023-02-28T14:07:26;6.63;;;5.60;;
10246;SDS011;5168;47.854;7.944;2023-02-28T14:09:56;6.37;;;5.77;;
10246;SDS011;5168;47.854;7.944;2023-02-28T14:15:34;5.87;;;5.33;;
10246;SDS011;5168;47.854;7.944;2023-02-28T14:20:52;5.83;;;4.80;;
10246;SDS011;5168;47.854;7.944;2023-02-28T14:26:08;7.77;;;5.47;;
10246;SDS011;5168;47.854;7.944;2023-02-28T14:29:02;5.77;;;5.17;;
10246;SDS011;5168;47.854;7.944;2023-02-28T14:31:51;5.90;;;5.00;;
10246;SDS011;5168;47.854;7.944;2023-02-28T14:37:02;6.20;;;5.57;;
10246;SDS011;5168;47.854;7.944;2023-02-28T14:39:29;5.93;;;5.00;;
10246;SDS011;5168;47.854;7.944;2023-02-28T14:41:56;6.33;;;5.60;;
10246;SDS011;5168;47.854;7.944;2023-02-28T14:44:28;6.60;;;5.93;;
10246;SDS011;5168;47.854;7.944;2023-02-28T14:46:54;5.40;;;4.90;;
10246;SDS011;5168;47.854;7.944;2023-02-28T14:49:32;6.87;;;6.03;;
10246;SDS011;5168;47.854;7.944;2023-02-28T14:52:20;6.60;;;6.00;;
10246;SDS011;5168;47.854;7.944;2023-02-28T14:55:01;7.03;;;6.33;;
10246;SDS011;5168;47.854;7.944;2023-02-28T14:57:34;6.97;;;6.27;;
10246;SDS011;5168;47.854;7.944;2023-02-28T15:02:37;10.30;;;6.43;;
10246;SDS011;5168;47.854;7.944;2023-02-28T15:07:34;6.97;;;6.20;;
10246;SDS011;5168;47.854;7.944;2023-02-28T15:12:32;7.53;;;6.53;;
10246;SDS011;5168;47.854;7.944;2023-02-28T15:14:57;10.17;;;6.93;;
10246;SDS011;5168;47.854;7.944;2023-02-28T15:17:23;8.07;;;6.53;;
10246;SDS011;5168;47.854;7.944;2023-02-28T15:19:50;8.70;;;7.40;;
10246;SDS011;5168;47.854;7.944;2023-02-28T15:22:26;8.00;;;6.57;;
10246;SDS011;5168;47.854;7.944;2023-02-28T15:24:59;7.53;;;6.47;;
10246;SDS011;5168;47.854;7.944;2023-02-28T15:27:25;8.23;;;6.73;;
10246;SDS011;5168;47.854;7.944;2023-02-28T15:29:56;7.80;;;6.83;;
10246;SDS011;5168;47.854;7.944;2023-02-28T15:32:36;8.47;;;7.07;;
10246;SDS011;5168;47.854;7.944;2023-02-28T15:35:18;8.60;;;7.07;;
10246;SDS011;5168;47.854;7.944;2023-02-28T15:37:54;8.40;;;7.37;;
10246;SDS011;5168;47.854;7.944;2023-02-28T15:40:37;7.83;;;7.00;;
10246;SDS011;5168;47.854;7.944;2023-02-28T15:43:13;7.40;;;6.70;;
10246;SDS011;5168;47.854;7.944;2023-02-28T15:45:47;8.10;;;6.73;;
10246;SDS011;5168;47.854;7.944;2023-02-28T15:48:29;7.60;;;6.87;;
10246;SDS011;5168;47.854;7.944;2023-02-28T15:51:18;8.27;;;6.53;;
10246;SDS011;5168;47.854;7.944;2023-02-28T15:53:51;7.73;;;6.57;;
10246;SDS011;5168;47.854;7.944;2023-02-28T15:56:43;9.37;;;6.73;;
10246;SDS011;5168;47.854;7.944;2023-02-28T15:59:13;9.77;;;7.33;;
10246;SDS011;5168;47.854;7.944;2023-02-28T16:01:42;8.13;;;7.10;;
10246;SDS011;5168;47.854;7.944;2023-02-28T16:04:19;9.43;;;7.20;;
10246;SDS011;5168;47.854;7.944;2023-02-28T16:09:29;9.80;;;8.03;;
10246;SDS011;5168;47.854;7.944;2023-02-28T16:11:56;10.13;;;8.07;;
10246;SDS011;5168;47.854;7.944;2023-02-28T16:14:29;9.33;;;7.83;;
10246;SDS011;5168;47.854;7.944;2023-02-28T16:17:02;8.63;;;7.73;;
10246;SDS011;5168;47.854;7.944;2023-02-28T16:19:29;9.53;;;7.40;;
10246;SDS011;5168;47.854;7.944;2023-02-28T16:21:55;8.23;;;7.33;;
10246;SDS011;5168;47.854;7.944;2023-02-28T16:24:21;8.43;;;7.17;;
10246;SDS011;5168;47.854;7.944;2023-02-28T16:26:48;8.17;;;7.03;;
10246;SDS011;5168;47.854;7.944;2023-02-28T16:29:33;8.47;;;7.47;;
10246;SDS011;5168;47.854;7.944;2023-02-28T16:32:00;9.10;;;7.67;;
10246;SDS011;5168;47.854;7.944;2023-02-28T16:34:28;7.77;;;6.83;;
10246;SDS011;5168;47.854;7.944;2023-02-28T16:36:54;9.50;;;7.50;;
10246;SDS011;5168;47.854;7.944;2023-02-28T16:39:20;12.00;;;8.23;;
10246;SDS011;5168;47.854;7.944;2023-02-28T16:41:45;9.80;;;7.53;;
10246;SDS011;5168;47.854;7.944;2023-02-28T16:44:34;8.10;;;7.13;;
10246;SDS011;5168;47.854;7.944;2023-02-28T16:47:00;9.63;;;7.67;;
10246;SDS011;5168;47.854;7.944;2023-02-28T16:49:27;7.80;;;7.00;;
10246;SDS011;5168;47.854;7.944;2023-02-28T16:51:53;9.87;;;7.77;;
10246;SDS011;5168;47.854;7.944;2023-02-28T16:54:19;8.77;;;6.87;;
10246;SDS011;5168;47.854;7.944;2023-02-28T16:56:45;8.63;;;6.80;;
10246;SDS011;5168;47.854;7.944;2023-02-28T16:59:12;8.80;;;7.50;;
10246;SDS011;5168;47.854;7.944;2023-02-28T17:01:39;10.30;;;7.67;;
10246;SDS011;5168;47.854;7.944;2023-02-28T17:04:05;7.53;;;6.73;;
10246;SDS011;5168;47.854;7.944;2023-02-28T17:06:31;8.03;;;7.23;;
10246;SDS011;5168;47.854;7.944;2023-02-28T17:08:57;9.80;;;8.23;;
10246;SDS011;5168;47.854;7.944;2023-02-28T17:11:24;8.20;;;7.00;;
10246;SDS011;5168;47.854;7.944;2023-02-28T17:13:50;9.17;;;7.53;;
10246;SDS011;5168;47.854;7.944;2023-02-28T17:16:23;10.13;;;7.93;;
10246;SDS011;5168;47.854;7.944;2023-02-28T17:18:53;8.83;;;7.87;;
10246;SDS011;5168;47.854;7.944;2023-02-28T17:21:21;9.03;;;7.70;;
10246;SDS011;5168;47.854;7.944;2023-02-28T17:23:47;9.30;;;8.27;;
10246;SDS011;5168;47.854;7.944;2023-02-28T17:26:14;10.70;;;8.37;;
10246;SDS011;5168;47.854;7.944;2023-02-28T17:28:42;10.20;;;8.17;;
10246;SDS011;5168;47.854;7.944;2023-02-28T17:31:08;8.60;;;7.53;;
10246;SDS011;5168;47.854;7.944;2023-02-28T17:33:34;10.87;;;7.90;;
10246;SDS011;5168;47.854;7.944;2023-02-28T17:36:00;10.47;;;8.10;;
10246;SDS011;5168;47.854;7.944;2023-02-28T17:38:26;10.70;;;8.33;;